sensor_id;sensor_type;location;lat;lon;timestamp;temperature;humidity
30001;DHT22;16845;48.670;9.000;2022-12-29T00:01:00;8.30;99.90
30001;DHT22;16845;48.670;9.000;2022-12-29T00:03:28;8.40;99.90
30001;DHT22;16845;48.670;9.000;2022-12-29T00:05:58;8.50;99.90
30001;DHT22;16845;48.670;9.000;2022-12-29T00:08:26;8.60;99.90
30001;DHT22;16845;48.670;9.000;2022-12-29T00:11:06;8.60;99.90
30001;DHT22;16845;48.670;9.000;2022-12-29T00:13:35;8.60;99.90
30001;DHT22;16845;48.670;9.000;2022-12-29T00:16:20;8.60;99.90
30001;DHT22;16845;48.670;9.000;2022-12-29T00:18:48;8.60;99.90
30001;DHT22;16845;48.670;9.000;2022-12-29T00:21:20;8.60;99.90
30001;DHT22;16845;48.670;9.000;2022-12-29T00:24:13;8.50;99.90
30001;DHT22;16845;48.670;9.000;2022-12-29T00:27:10;8.60;99.90
30001;DHT22;16845;48.670;9.000;2022-12-29T00:29:56;8.60;99.90
30001;DHT22;16845;48.670;9.000;2022-12-29T00:32:43;8.60;99.90
30001;DHT22;16845;48.670;9.000;2022-12-29T00:35:30;8.60;99.90
30001;DHT22;16845;48.670;9.000;2022-12-29T00:38:02;8.60;99.90
30001;DHT22;16845;48.670;9.000;2022-12-29T00:40:49;8.70;99.90
30001;DHT22;16845;48.670;9.000;2022-12-29T00:43:34;8.80;99.90
30001;DHT22;16845;48.670;9.000;2022-12-29T00:46:22;8.80;99.90
30001;DHT22;16845;48.670;9.000;2022-12-29T00:48:50;8.90;99.90
30001;DHT22;16845;48.670;9.000;2022-12-29T00:51:36;8.90;99.90
30001;DHT22;16845;48.670;9.000;2022-12-29T00:54:05;9.00;99.90
30001;DHT22;16845;48.670;9.000;2022-12-29T00:56:33;8.90;99.90
30001;DHT22;16845;48.670;9.000;2022-12-29T00:59:01;8.80;99.90
30001;DHT22;16845;48.670;9.000;2022-12-29T01:01:29;8.80;99.90
30001;DHT22;16845;48.670;9.000;2022-12-29T01:03:57;8.80;99.90
30001;DHT22;16845;48.670;9.000;2022-12-29T01:06:30;8.80;99.90
30001;DHT22;16845;48.670;9.000;2022-12-29T01:08:58;8.90;99.90
30001;DHT22;16845;48.670;9.000;2022-12-29T01:11:45;8.90;99.90
30001;DHT22;16845;48.670;9.000;2022-12-29T01:14:13;9.00;99.90
30001;DHT22;16845;48.670;9.000;2022-12-29T01:16:41;9.00;99.90
30001;DHT22;16845;48.670;9.000;2022-12-29T01:19:09;9.00;99.90
30001;DHT22;16845;48.670;9.000;2022-12-29T01:21:37;9.00;99.90
30001;DHT22;16845;48.670;9.000;2022-12-29T01:24:06;9.10;99.90
30001;DHT22;16845;48.670;9.000;2022-12-29T01:26:33;9.10;99.90
30001;DHT22;16845;48.670;9.000;2022-12-29T01:29:03;9.20;99.90
30001;DHT22;16845;48.670;9.000;2022-12-29T01:31:31;9.20;99.90
30001;DHT22;16845;48.670;9.000;2022-12-29T01:33:59;9.20;99.90
30001;DHT22;16845;48.670;9.000;2022-12-29T01:36:27;9.30;99.90
30001;DHT22;16845;48.670;9.000;2022-12-29T01:38:54;9.40;99.90
30001;DHT22;16845;48.670;9.000;2022-12-29T01:41:23;9.40;99.90
30001;DHT22;16845;48.670;9.000;2022-12-29T01:43:52;9.40;99.90
30001;DHT22;16845;48.670;9.000;2022-12-29T01:46:25;9.40;99.90
30001;DHT22;16845;48.670;9.000;2022-12-29T01:48:59;9.40;99.90
30001;DHT22;16845;48.670;9.000;2022-12-29T01:51:28;9.40;99.90
30001;DHT22;16845;48.670;9.000;2022-12-29T01:54:00;9.40;99.90
30001;DHT22;16845;48.670;9.000;2022-12-29T01:56:29;9.40;99.90
30001;DHT22;16845;48.670;9.000;2022-12-29T01:59:03;9.50;99.90
30001;DHT22;16845;48.670;9.000;2022-12-29T02:01:34;9.50;99.90
30001;DHT22;16845;48.670;9.000;2022-12-29T02:04:03;9.60;99.90
30001;DHT22;16845;48.670;9.000;2022-12-29T02:06:34;9.60;99.90
30001;DHT22;16845;48.670;9.000;2022-12-29T02:09:04;9.60;99.90
30001;DHT22;16845;48.670;9.000;2022-12-29T02:11:35;9.70;99.90
30001;DHT22;16845;48.670;9.000;2022-12-29T02:14:08;9.70;99.90
30001;DHT22;16845;48.670;9.000;2022-12-29T02:16:50;9.80;99.90
30001;DHT22;16845;48.670;9.000;2022-12-29T02:20:05;9.80;99.90
30001;DHT22;16845;48.670;9.000;2022-12-29T02:22:50;9.80;99.90
30001;DHT22;16845;48.670;9.000;2022-12-29T02:25:47;9.80;99.90
30001;DHT22;16845;48.670;9.000;2022-12-29T02:28:46;9.70;99.90
30001;DHT22;16845;48.670;9.000;2022-12-29T02:31:27;9.70;99.90
30001;DHT22;16845;48.670;9.000;2022-12-29T02:34:09;9.80;99.90
30001;DHT22;16845;48.670;9.000;2022-12-29T02:36:46;9.80;99.90
30001;DHT22;16845;48.670;9.000;2022-12-29T02:39:22;9.80;99.90
30001;DHT22;16845;48.670;9.000;2022-12-29T02:42:00;9.80;99.90
30001;DHT22;16845;48.670;9.000;2022-12-29T02:44:35;9.80;99.90
30001;DHT22;16845;48.670;9.000;2022-12-29T02:47:13;9.90;99.90
30001;DHT22;16845;48.670;9.000;2022-12-29T02:49:48;10.00;99.90
30001;DHT22;16845;48.670;9.000;2022-12-29T02:52:26;10.10;99.90
30001;DHT22;16845;48.670;9.000;2022-12-29T02:54:55;10.10;99.90
30001;DHT22;16845;48.670;9.000;2022-12-29T02:57:31;10.10;99.90
30001;DHT22;16845;48.670;9.000;2022-12-29T03:00:03;10.10;99.90
30001;DHT22;16845;48.670;9.000;2022-12-29T03:02:46;10.10;99.90
30001;DHT22;16845;48.670;9.000;2022-12-29T03:05:25;10.00;99.90
30001;DHT22;16845;48.670;9.000;2022-12-29T03:08:03;9.90;99.90
30001;DHT22;16845;48.670;9.000;2022-12-29T03:10:39;9.90;99.90
30001;DHT22;16845;48.670;9.000;2022-12-29T03:13:14;10.00;99.90
30001;DHT22;16845;48.670;9.000;2022-12-29T03:16:09;10.20;99.90
30001;DHT22;16845;48.670;9.000;2022-12-29T03:18:47;10.40;99.90
30001;DHT22;16845;48.670;9.000;2022-12-29T03:21:21;10.50;99.90
30001;DHT22;16845;48.670;9.000;2022-12-29T03:24:11;10.50;99.90
30001;DHT22;16845;48.670;9.000;2022-12-29T03:26:41;10.60;99.90
30001;DHT22;16845;48.670;9.000;2022-12-29T03:29:11;10.60;99.90
30001;DHT22;16845;48.670;9.000;2022-12-29T03:31:41;10.60;99.90
30001;DHT22;16845;48.670;9.000;2022-12-29T03:34:12;10.50;99.90
30001;DHT22;16845;48.670;9.000;2022-12-29T03:36:46;10.50;99.90
30001;DHT22;16845;48.670;9.000;2022-12-29T03:39:16;10.50;99.90
30001;DHT22;16845;48.670;9.000;2022-12-29T03:41:46;10.50;99.90
30001;DHT22;16845;48.670;9.000;2022-12-29T03:44:16;10.40;99.90
30001;DHT22;16845;48.670;9.000;2022-12-29T03:46:44;10.40;99.90
30001;DHT22;16845;48.670;9.000;2022-12-29T03:49:13;10.40;99.90
30001;DHT22;16845;48.670;9.000;2022-12-29T03:51:41;10.30;99.90
30001;DHT22;16845;48.670;9.000;2022-12-29T03:54:09;10.20;99.90
30001;DHT22;16845;48.670;9.000;2022-12-29T03:56:37;10.20;99.90
30001;DHT22;16845;48.670;9.000;2022-12-29T03:59:05;10.20;99.90
30001;DHT22;16845;48.670;9.000;2022-12-29T04:01:33;10.20;99.90
30001;DHT22;16845;48.670;9.000;2022-12-29T04:04:01;10.10;99.90
30001;DHT22;16845;48.670;9.000;2022-12-29T04:06:30;9.90;99.90
30001;DHT22;16845;48.670;9.000;2022-12-29T04:08:58;9.80;99.90
30001;DHT22;16845;48.670;9.000;2022-12-29T04:11:26;9.90;99.90
30001;DHT22;16845;48.670;9.000;2022-12-29T04:13:59;9.90;99.90
30001;DHT22;16845;48.670;9.000;2022-12-29T04:16:26;9.90;99.90
30001;DHT22;16845;48.670;9.000;2022-12-29T04:18:54;9.80;99.90
30001;DHT22;16845;48.670;9.000;2022-12-29T04:21:22;9.90;99.90
30001;DHT22;16845;48.670;9.000;2022-12-29T04:23:51;9.90;99.90
30001;DHT22;16845;48.670;9.000;2022-12-29T04:26:19;10.00;99.90
30001;DHT22;16845;48.670;9.000;2022-12-29T04:28:47;10.00;99.90
30001;DHT22;16845;48.670;9.000;2022-12-29T04:31:15;10.00;99.90
30001;DHT22;16845;48.670;9.000;2022-12-29T04:33:44;10.00;99.90
30001;DHT22;16845;48.670;9.000;2022-12-29T04:36:12;10.00;99.90
30001;DHT22;16845;48.670;9.000;2022-12-29T04:38:40;9.90;99.90
30001;DHT22;16845;48.670;9.000;2022-12-29T04:41:10;10.00;99.90
30001;DHT22;16845;48.670;9.000;2022-12-29T04:43:38;9.90;99.90
30001;DHT22;16845;48.670;9.000;2022-12-29T04:46:06;9.90;99.90
30001;DHT22;16845;48.670;9.000;2022-12-29T04:48:34;9.90;99.90
30001;DHT22;16845;48.670;9.000;2022-12-29T04:51:02;9.80;99.90
30001;DHT22;16845;48.670;9.000;2022-12-29T04:53:31;9.90;99.90
30001;DHT22;16845;48.670;9.000;2022-12-29T04:55:59;9.90;99.90
30001;DHT22;16845;48.670;9.000;2022-12-29T04:58:29;9.90;99.90
30001;DHT22;16845;48.670;9.000;2022-12-29T05:00:57;9.90;99.90
30001;DHT22;16845;48.670;9.000;2022-12-29T05:03:25;9.90;99.90
30001;DHT22;16845;48.670;9.000;2022-12-29T05:05:54;10.00;99.90
30001;DHT22;16845;48.670;9.000;2022-12-29T05:08:22;10.00;99.90
30001;DHT22;16845;48.670;9.000;2022-12-29T05:10:54;9.90;99.90
30001;DHT22;16845;48.670;9.000;2022-12-29T05:13:22;9.90;99.90
30001;DHT22;16845;48.670;9.000;2022-12-29T05:15:52;9.90;99.90
30001;DHT22;16845;48.670;9.000;2022-12-29T05:18:20;9.80;99.90
30001;DHT22;16845;48.670;9.000;2022-12-29T05:20:48;9.80;99.90
30001;DHT22;16845;48.670;9.000;2022-12-29T05:23:17;9.70;99.90
30001;DHT22;16845;48.670;9.000;2022-12-29T05:25:45;9.70;99.90
30001;DHT22;16845;48.670;9.000;2022-12-29T05:28:13;9.80;99.90
30001;DHT22;16845;48.670;9.000;2022-12-29T05:30:44;9.80;99.90
30001;DHT22;16845;48.670;9.000;2022-12-29T05:33:16;9.90;99.90
30001;DHT22;16845;48.670;9.000;2022-12-29T05:35:44;10.00;99.90
30001;DHT22;16845;48.670;9.000;2022-12-29T05:38:13;10.00;99.90
30001;DHT22;16845;48.670;9.000;2022-12-29T05:40:40;10.00;99.90
30001;DHT22;16845;48.670;9.000;2022-12-29T05:43:08;10.00;99.90
30001;DHT22;16845;48.670;9.000;2022-12-29T05:45:36;10.10;99.90
30001;DHT22;16845;48.670;9.000;2022-12-29T05:48:05;10.00;99.90
30001;DHT22;16845;48.670;9.000;2022-12-29T05:50:34;10.00;99.90
30001;DHT22;16845;48.670;9.000;2022-12-29T05:53:02;10.10;99.90
30001;DHT22;16845;48.670;9.000;2022-12-29T05:55:30;10.00;99.90
30001;DHT22;16845;48.670;9.000;2022-12-29T05:57:58;10.00;99.90
30001;DHT22;16845;48.670;9.000;2022-12-29T06:00:26;10.00;99.90
30001;DHT22;16845;48.670;9.000;2022-12-29T06:02:54;10.00;99.90
30001;DHT22;16845;48.670;9.000;2022-12-29T06:05:22;10.10;99.90
30001;DHT22;16845;48.670;9.000;2022-12-29T06:07:52;10.10;99.90
30001;DHT22;16845;48.670;9.000;2022-12-29T06:10:20;10.20;99.90
30001;DHT22;16845;48.670;9.000;2022-12-29T06:12:48;10.20;99.90
30001;DHT22;16845;48.670;9.000;2022-12-29T06:15:16;10.30;99.90
30001;DHT22;16845;48.670;9.000;2022-12-29T06:17:45;10.20;99.90
30001;DHT22;16845;48.670;9.000;2022-12-29T06:20:13;10.10;99.90
30001;DHT22;16845;48.670;9.000;2022-12-29T06:22:40;10.00;99.90
30001;DHT22;16845;48.670;9.000;2022-12-29T06:25:10;9.90;99.90
30001;DHT22;16845;48.670;9.000;2022-12-29T06:27:38;9.90;99.90
30001;DHT22;16845;48.670;9.000;2022-12-29T06:30:07;10.00;99.90
30001;DHT22;16845;48.670;9.000;2022-12-29T06:32:35;10.00;99.90
30001;DHT22;16845;48.670;9.000;2022-12-29T06:35:04;9.90;99.90
30001;DHT22;16845;48.670;9.000;2022-12-29T06:37:32;9.90;99.90
30001;DHT22;16845;48.670;9.000;2022-12-29T06:40:00;9.90;99.90
30001;DHT22;16845;48.670;9.000;2022-12-29T06:42:30;9.90;99.90
30001;DHT22;16845;48.670;9.000;2022-12-29T06:44:58;9.90;99.90
30001;DHT22;16845;48.670;9.000;2022-12-29T06:47:28;9.80;99.90
30001;DHT22;16845;48.670;9.000;2022-12-29T06:49:56;9.90;99.90
30001;DHT22;16845;48.670;9.000;2022-12-29T06:52:23;9.80;99.90
30001;DHT22;16845;48.670;9.000;2022-12-29T06:54:51;9.80;99.90
30001;DHT22;16845;48.670;9.000;2022-12-29T06:57:19;9.80;99.90
30001;DHT22;16845;48.670;9.000;2022-12-29T06:59:49;9.80;99.90
30001;DHT22;16845;48.670;9.000;2022-12-29T07:02:17;9.80;99.90
30001;DHT22;16845;48.670;9.000;2022-12-29T07:04:46;9.80;99.90
30001;DHT22;16845;48.670;9.000;2022-12-29T07:07:14;9.90;99.90
30001;DHT22;16845;48.670;9.000;2022-12-29T07:09:43;9.80;99.90
30001;DHT22;16845;48.670;9.000;2022-12-29T07:12:11;9.80;99.90
30001;DHT22;16845;48.670;9.000;2022-12-29T07:14:39;9.70;99.90
30001;DHT22;16845;48.670;9.000;2022-12-29T07:17:10;9.70;99.90
30001;DHT22;16845;48.670;9.000;2022-12-29T07:19:40;9.70;99.90
30001;DHT22;16845;48.670;9.000;2022-12-29T07:22:09;9.60;99.90
30001;DHT22;16845;48.670;9.000;2022-12-29T07:24:37;9.60;99.90
30001;DHT22;16845;48.670;9.000;2022-12-29T07:27:05;9.70;99.90
30001;DHT22;16845;48.670;9.000;2022-12-29T07:29:33;9.70;99.90
30001;DHT22;16845;48.670;9.000;2022-12-29T07:32:01;9.70;99.90
30001;DHT22;16845;48.670;9.000;2022-12-29T07:34:31;9.70;99.90
30001;DHT22;16845;48.670;9.000;2022-12-29T07:36:58;9.70;99.90
30001;DHT22;16845;48.670;9.000;2022-12-29T07:39:27;9.60;99.90
30001;DHT22;16845;48.670;9.000;2022-12-29T07:41:55;9.60;99.90
30001;DHT22;16845;48.670;9.000;2022-12-29T07:44:30;9.50;99.90
30001;DHT22;16845;48.670;9.000;2022-12-29T07:46:59;9.60;99.90
30001;DHT22;16845;48.670;9.000;2022-12-29T07:49:28;9.60;99.90
30001;DHT22;16845;48.670;9.000;2022-12-29T07:51:57;9.60;99.90
30001;DHT22;16845;48.670;9.000;2022-12-29T07:54:25;9.70;99.90
30001;DHT22;16845;48.670;9.000;2022-12-29T07:56:53;9.70;99.90
30001;DHT22;16845;48.670;9.000;2022-12-29T07:59:21;9.70;99.90
30001;DHT22;16845;48.670;9.000;2022-12-29T08:01:50;9.70;99.90
30001;DHT22;16845;48.670;9.000;2022-12-29T08:04:18;9.80;99.90
30001;DHT22;16845;48.670;9.000;2022-12-29T08:06:46;9.90;99.90
30001;DHT22;16845;48.670;9.000;2022-12-29T08:09:16;9.90;99.90
30001;DHT22;16845;48.670;9.000;2022-12-29T08:11:50;9.90;99.90
30001;DHT22;16845;48.670;9.000;2022-12-29T08:14:18;9.90;99.90
30001;DHT22;16845;48.670;9.000;2022-12-29T08:16:46;10.00;99.90
30001;DHT22;16845;48.670;9.000;2022-12-29T08:19:14;10.00;99.90
30001;DHT22;16845;48.670;9.000;2022-12-29T08:21:43;10.00;99.90
30001;DHT22;16845;48.670;9.000;2022-12-29T08:24:11;10.00;99.90
30001;DHT22;16845;48.670;9.000;2022-12-29T08:26:40;10.00;99.90
30001;DHT22;16845;48.670;9.000;2022-12-29T08:29:08;10.00;99.90
30001;DHT22;16845;48.670;9.000;2022-12-29T08:31:36;10.00;99.90
30001;DHT22;16845;48.670;9.000;2022-12-29T08:34:05;10.00;99.90
30001;DHT22;16845;48.670;9.000;2022-12-29T08:36:33;10.10;99.90
30001;DHT22;16845;48.670;9.000;2022-12-29T08:39:01;10.10;99.90
30001;DHT22;16845;48.670;9.000;2022-12-29T08:41:29;10.00;99.90
30001;DHT22;16845;48.670;9.000;2022-12-29T08:43:58;10.00;99.90
30001;DHT22;16845;48.670;9.000;2022-12-29T08:46:27;10.00;99.90
30001;DHT22;16845;48.670;9.000;2022-12-29T08:48:55;10.10;99.90
30001;DHT22;16845;48.670;9.000;2022-12-29T08:51:23;10.10;99.90
30001;DHT22;16845;48.670;9.000;2022-12-29T08:53:52;10.10;99.90
30001;DHT22;16845;48.670;9.000;2022-12-29T08:56:20;10.10;99.90
30001;DHT22;16845;48.670;9.000;2022-12-29T08:58:48;10.10;99.90
30001;DHT22;16845;48.670;9.000;2022-12-29T09:01:18;10.10;99.90
30001;DHT22;16845;48.670;9.000;2022-12-29T09:03:47;10.10;99.90
30001;DHT22;16845;48.670;9.000;2022-12-29T09:06:35;10.20;99.90
30001;DHT22;16845;48.670;9.000;2022-12-29T09:09:06;10.30;99.90
30001;DHT22;16845;48.670;9.000;2022-12-29T09:11:34;10.40;99.90
30001;DHT22;16845;48.670;9.000;2022-12-29T09:14:03;10.60;99.90
30001;DHT22;16845;48.670;9.000;2022-12-29T09:16:33;10.60;99.90
30001;DHT22;16845;48.670;9.000;2022-12-29T09:19:01;10.60;99.90
30001;DHT22;16845;48.670;9.000;2022-12-29T09:21:29;10.70;99.90
30001;DHT22;16845;48.670;9.000;2022-12-29T09:23:58;10.90;99.90
30001;DHT22;16845;48.670;9.000;2022-12-29T09:26:26;11.10;99.90
30001;DHT22;16845;48.670;9.000;2022-12-29T09:28:54;11.30;99.90
30001;DHT22;16845;48.670;9.000;2022-12-29T09:31:23;11.60;99.90
30001;DHT22;16845;48.670;9.000;2022-12-29T09:33:53;11.70;99.90
30001;DHT22;16845;48.670;9.000;2022-12-29T09:36:22;11.80;99.90
30001;DHT22;16845;48.670;9.000;2022-12-29T09:38:50;11.90;99.90
30001;DHT22;16845;48.670;9.000;2022-12-29T09:41:24;12.10;99.90
30001;DHT22;16845;48.670;9.000;2022-12-29T09:44:06;12.10;99.90
30001;DHT22;16845;48.670;9.000;2022-12-29T09:46:39;12.20;99.90
30001;DHT22;16845;48.670;9.000;2022-12-29T09:49:16;12.30;99.90
30001;DHT22;16845;48.670;9.000;2022-12-29T09:51:46;12.20;99.90
30001;DHT22;16845;48.670;9.000;2022-12-29T09:57:32;12.30;99.90
30001;DHT22;16845;48.670;9.000;2022-12-29T10:00:05;12.30;99.90
30001;DHT22;16845;48.670;9.000;2022-12-29T10:02:38;12.30;99.90
30001;DHT22;16845;48.670;9.000;2022-12-29T10:05:27;12.20;99.90
30001;DHT22;16845;48.670;9.000;2022-12-29T10:08:06;12.00;99.90
30001;DHT22;16845;48.670;9.000;2022-12-29T10:10:48;12.00;99.90
30001;DHT22;16845;48.670;9.000;2022-12-29T10:13:29;12.00;99.90
30001;DHT22;16845;48.670;9.000;2022-12-29T10:16:06;12.10;99.90
30001;DHT22;16845;48.670;9.000;2022-12-29T10:19:12;12.20;99.90
30001;DHT22;16845;48.670;9.000;2022-12-29T10:21:58;12.30;99.90
30001;DHT22;16845;48.670;9.000;2022-12-29T10:24:29;12.40;99.90
30001;DHT22;16845;48.670;9.000;2022-12-29T10:26:59;12.50;99.90
30001;DHT22;16845;48.670;9.000;2022-12-29T10:29:32;12.50;99.90
30001;DHT22;16845;48.670;9.000;2022-12-29T10:32:04;12.50;99.90
30001;DHT22;16845;48.670;9.000;2022-12-29T10:34:36;12.40;99.90
30001;DHT22;16845;48.670;9.000;2022-12-29T10:37:14;12.60;99.90
30001;DHT22;16845;48.670;9.000;2022-12-29T10:39:47;12.90;99.90
30001;DHT22;16845;48.670;9.000;2022-12-29T10:42:25;13.70;99.90
30001;DHT22;16845;48.670;9.000;2022-12-29T10:44:54;15.00;99.90
30001;DHT22;16845;48.670;9.000;2022-12-29T10:47:25;14.60;99.90
30001;DHT22;16845;48.670;9.000;2022-12-29T10:49:55;13.70;99.90
30001;DHT22;16845;48.670;9.000;2022-12-29T10:52:27;13.10;99.90
30001;DHT22;16845;48.670;9.000;2022-12-29T10:54:59;12.80;99.90
30001;DHT22;16845;48.670;9.000;2022-12-29T10:57:32;12.50;99.90
30001;DHT22;16845;48.670;9.000;2022-12-29T11:00:01;12.40;99.90
30001;DHT22;16845;48.670;9.000;2022-12-29T11:02:48;12.30;99.90
30001;DHT22;16845;48.670;9.000;2022-12-29T11:05:23;12.30;99.90
30001;DHT22;16845;48.670;9.000;2022-12-29T11:07:59;12.40;99.90
30001;DHT22;16845;48.670;9.000;2022-12-29T11:10:36;12.40;99.90
30001;DHT22;16845;48.670;9.000;2022-12-29T11:13:12;12.40;99.90
30001;DHT22;16845;48.670;9.000;2022-12-29T11:15:42;12.40;99.90
30001;DHT22;16845;48.670;9.000;2022-12-29T11:18:22;12.50;99.90
30001;DHT22;16845;48.670;9.000;2022-12-29T11:20:53;12.60;99.90
30001;DHT22;16845;48.670;9.000;2022-12-29T11:23:31;12.40;99.90
30001;DHT22;16845;48.670;9.000;2022-12-29T11:26:17;12.10;99.90
30001;DHT22;16845;48.670;9.000;2022-12-29T11:29:01;11.70;99.90
30001;DHT22;16845;48.670;9.000;2022-12-29T11:31:33;11.60;99.90
30001;DHT22;16845;48.670;9.000;2022-12-29T11:34:08;11.80;99.90
30001;DHT22;16845;48.670;9.000;2022-12-29T11:36:36;12.10;99.90
30001;DHT22;16845;48.670;9.000;2022-12-29T11:42:13;12.90;99.90
30001;DHT22;16845;48.670;9.000;2022-12-29T11:44:45;13.10;99.90
30001;DHT22;16845;48.670;9.000;2022-12-29T11:47:25;13.00;99.90
30001;DHT22;16845;48.670;9.000;2022-12-29T11:49:58;12.70;99.90
30001;DHT22;16845;48.670;9.000;2022-12-29T11:52:29;12.40;99.90
30001;DHT22;16845;48.670;9.000;2022-12-29T11:55:02;12.00;99.90
30001;DHT22;16845;48.670;9.000;2022-12-29T11:57:33;11.80;99.90
30001;DHT22;16845;48.670;9.000;2022-12-29T12:00:14;11.70;99.90
30001;DHT22;16845;48.670;9.000;2022-12-29T12:02:47;11.60;99.90
30001;DHT22;16845;48.670;9.000;2022-12-29T12:05:27;11.50;99.90
30001;DHT22;16845;48.670;9.000;2022-12-29T12:08:02;11.50;99.90
30001;DHT22;16845;48.670;9.000;2022-12-29T12:10:37;11.50;99.90
30001;DHT22;16845;48.670;9.000;2022-12-29T12:13:17;11.40;99.90
30001;DHT22;16845;48.670;9.000;2022-12-29T12:15:51;11.40;99.90
30001;DHT22;16845;48.670;9.000;2022-12-29T12:18:32;11.40;99.90
30001;DHT22;16845;48.670;9.000;2022-12-29T12:21:08;11.30;99.90
30001;DHT22;16845;48.670;9.000;2022-12-29T12:23:47;11.40;99.90
30001;DHT22;16845;48.670;9.000;2022-12-29T12:26:20;11.20;99.90
30001;DHT22;16845;48.670;9.000;2022-12-29T12:28:54;11.00;99.90
30001;DHT22;16845;48.670;9.000;2022-12-29T12:31:32;10.80;99.90
30001;DHT22;16845;48.670;9.000;2022-12-29T12:34:13;10.70;99.90
30001;DHT22;16845;48.670;9.000;2022-12-29T12:37:06;10.40;99.90
30001;DHT22;16845;48.670;9.000;2022-12-29T12:39:47;10.30;99.90
30001;DHT22;16845;48.670;9.000;2022-12-29T12:42:28;10.20;99.90
30001;DHT22;16845;48.670;9.000;2022-12-29T12:45:17;10.10;99.90
30001;DHT22;16845;48.670;9.000;2022-12-29T12:48:05;10.20;99.90
30001;DHT22;16845;48.670;9.000;2022-12-29T12:50:45;10.40;99.90
30001;DHT22;16845;48.670;9.000;2022-12-29T12:53:39;10.50;99.90
30001;DHT22;16845;48.670;9.000;2022-12-29T12:56:21;10.60;99.90
30001;DHT22;16845;48.670;9.000;2022-12-29T12:59:00;10.70;99.90
30001;DHT22;16845;48.670;9.000;2022-12-29T13:01:42;12.00;99.90
30001;DHT22;16845;48.670;9.000;2022-12-29T13:07:16;14.60;99.90
30001;DHT22;16845;48.670;9.000;2022-12-29T13:09:57;14.50;99.90
30001;DHT22;16845;48.670;9.000;2022-12-29T13:12:35;14.30;99.90
30001;DHT22;16845;48.670;9.000;2022-12-29T13:15:17;14.40;99.90
30001;DHT22;16845;48.670;9.000;2022-12-29T13:17:52;14.40;99.90
30001;DHT22;16845;48.670;9.000;2022-12-29T13:20:28;14.50;99.90
30001;DHT22;16845;48.670;9.000;2022-12-29T13:23:07;14.40;99.90
30001;DHT22;16845;48.670;9.000;2022-12-29T13:25:42;13.80;99.90
30001;DHT22;16845;48.670;9.000;2022-12-29T13:28:18;13.00;99.90
30001;DHT22;16845;48.670;9.000;2022-12-29T13:30:56;12.40;99.90
30001;DHT22;16845;48.670;9.000;2022-12-29T13:33:31;12.00;99.90
30001;DHT22;16845;48.670;9.000;2022-12-29T13:36:05;11.70;99.90
30001;DHT22;16845;48.670;9.000;2022-12-29T13:38:37;11.60;99.90
30001;DHT22;16845;48.670;9.000;2022-12-29T13:41:08;11.50;99.90
30001;DHT22;16845;48.670;9.000;2022-12-29T13:43:42;11.40;99.90
30001;DHT22;16845;48.670;9.000;2022-12-29T13:46:15;11.40;99.90
30001;DHT22;16845;48.670;9.000;2022-12-29T13:48:49;11.40;99.90
30001;DHT22;16845;48.670;9.000;2022-12-29T13:51:21;11.30;99.90
30001;DHT22;16845;48.670;9.000;2022-12-29T13:54:05;11.30;99.90
30001;DHT22;16845;48.670;9.000;2022-12-29T13:56:40;11.30;99.90
30001;DHT22;16845;48.670;9.000;2022-12-29T13:59:17;11.30;99.90
30001;DHT22;16845;48.670;9.000;2022-12-29T14:01:53;11.50;99.90
30001;DHT22;16845;48.670;9.000;2022-12-29T14:04:24;11.80;99.90
30001;DHT22;16845;48.670;9.000;2022-12-29T14:07:01;11.80;99.90
30001;DHT22;16845;48.670;9.000;2022-12-29T14:09:51;11.70;99.90
30001;DHT22;16845;48.670;9.000;2022-12-29T14:12:25;11.40;99.90
30001;DHT22;16845;48.670;9.000;2022-12-29T14:15:03;11.20;99.90
30001;DHT22;16845;48.670;9.000;2022-12-29T14:17:34;11.10;99.90
30001;DHT22;16845;48.670;9.000;2022-12-29T14:20:04;11.00;99.90
30001;DHT22;16845;48.670;9.000;2022-12-29T14:22:34;11.00;99.90
30001;DHT22;16845;48.670;9.000;2022-12-29T14:25:03;11.00;99.90
30001;DHT22;16845;48.670;9.000;2022-12-29T14:27:44;11.20;99.90
30001;DHT22;16845;48.670;9.000;2022-12-29T14:30:47;11.20;99.90
30001;DHT22;16845;48.670;9.000;2022-12-29T14:33:18;11.20;99.90
30001;DHT22;16845;48.670;9.000;2022-12-29T14:35:48;11.10;99.90
30001;DHT22;16845;48.670;9.000;2022-12-29T14:38:22;11.10;99.90
30001;DHT22;16845;48.670;9.000;2022-12-29T14:40:51;11.00;99.90
30001;DHT22;16845;48.670;9.000;2022-12-29T14:43:26;10.90;99.90
30001;DHT22;16845;48.670;9.000;2022-12-29T14:45:58;10.90;99.90
30001;DHT22;16845;48.670;9.000;2022-12-29T14:48:35;10.90;99.90
30001;DHT22;16845;48.670;9.000;2022-12-29T14:51:25;10.80;99.90
30001;DHT22;16845;48.670;9.000;2022-12-29T14:53:54;10.70;99.90
30001;DHT22;16845;48.670;9.000;2022-12-29T14:56:26;10.70;99.90
30001;DHT22;16845;48.670;9.000;2022-12-29T14:58:56;10.60;99.90
30001;DHT22;16845;48.670;9.000;2022-12-29T15:01:33;10.60;99.90
30001;DHT22;16845;48.670;9.000;2022-12-29T15:04:15;10.60;99.90
30001;DHT22;16845;48.670;9.000;2022-12-29T15:06:44;10.60;99.90
30001;DHT22;16845;48.670;9.000;2022-12-29T15:09:22;10.60;99.90
30001;DHT22;16845;48.670;9.000;2022-12-29T15:11:53;10.70;99.90
30001;DHT22;16845;48.670;9.000;2022-12-29T15:14:33;10.60;99.90
30001;DHT22;16845;48.670;9.000;2022-12-29T15:17:09;10.60;99.90
30001;DHT22;16845;48.670;9.000;2022-12-29T15:19:39;10.60;99.90
30001;DHT22;16845;48.670;9.000;2022-12-29T15:22:09;10.60;99.90
30001;DHT22;16845;48.670;9.000;2022-12-29T15:24:41;10.50;99.90
30001;DHT22;16845;48.670;9.000;2022-12-29T15:27:13;10.50;99.90
30001;DHT22;16845;48.670;9.000;2022-12-29T15:29:43;10.50;99.90
30001;DHT22;16845;48.670;9.000;2022-12-29T15:32:19;10.40;99.90
30001;DHT22;16845;48.670;9.000;2022-12-29T15:34:51;10.40;99.90
30001;DHT22;16845;48.670;9.000;2022-12-29T15:37:21;10.50;99.90
30001;DHT22;16845;48.670;9.000;2022-12-29T15:39:51;10.50;99.90
30001;DHT22;16845;48.670;9.000;2022-12-29T15:42:31;10.50;99.90
30001;DHT22;16845;48.670;9.000;2022-12-29T15:45:04;10.50;99.90
30001;DHT22;16845;48.670;9.000;2022-12-29T15:47:38;10.50;99.90
30001;DHT22;16845;48.670;9.000;2022-12-29T15:50:24;10.40;99.90
30001;DHT22;16845;48.670;9.000;2022-12-29T15:52:54;10.40;99.90
30001;DHT22;16845;48.670;9.000;2022-12-29T15:55:28;10.30;99.90
30001;DHT22;16845;48.670;9.000;2022-12-29T15:57:59;10.20;99.90
30001;DHT22;16845;48.670;9.000;2022-12-29T16:00:29;10.30;99.90
30001;DHT22;16845;48.670;9.000;2022-12-29T16:03:00;10.30;99.90
30001;DHT22;16845;48.670;9.000;2022-12-29T16:05:34;10.20;99.90
30001;DHT22;16845;48.670;9.000;2022-12-29T16:08:15;10.20;99.90
30001;DHT22;16845;48.670;9.000;2022-12-29T16:10:48;10.20;99.90
30001;DHT22;16845;48.670;9.000;2022-12-29T16:13:21;10.10;99.90
30001;DHT22;16845;48.670;9.000;2022-12-29T16:15:53;10.00;99.90
30001;DHT22;16845;48.670;9.000;2022-12-29T16:18:26;9.80;99.90
30001;DHT22;16845;48.670;9.000;2022-12-29T16:20:57;9.70;99.90
30001;DHT22;16845;48.670;9.000;2022-12-29T16:23:28;9.50;99.90